sensor_id;sensor_type;location;lat;lon;timestamp;pressure;altitude;pressure_sealevel;temperature;humidity
77240;BME280;66258;53.170;-2.240;2023-05-29T00:02:11;101644.69;;;18.17;64.41
77240;BME280;66258;53.170;-2.240;2023-05-29T00:04:37;101661.94;;;18.03;65.79
77240;BME280;66258;53.170;-2.240;2023-05-29T00:07:04;101644.22;;;17.91;66.68
77240;BME280;66258;53.170;-2.240;2023-05-29T00:09:33;101658.94;;;17.90;67.50
77240;BME280;66258;53.170;-2.240;2023-05-29T00:11:59;101655.34;;;17.90;68.35
77240;BME280;66258;53.170;-2.240;2023-05-29T00:14:26;101659.78;;;17.91;68.81
77240;BME280;66258;53.170;-2.240;2023-05-29T00:16:53;101658.09;;;17.90;69.48
77240;BME280;66258;53.170;-2.240;2023-05-29T00:19:19;101654.22;;;17.84;70.10
77240;BME280;66258;53.170;-2.240;2023-05-29T00:21:46;101663.38;;;17.91;70.19
77240;BME280;66258;53.170;-2.240;2023-05-29T00:24:13;101670.22;;;17.95;70.15
77240;BME280;66258;53.170;-2.240;2023-05-29T00:26:41;101671.59;;;17.91;70.31
77240;BME280;66258;53.170;-2.240;2023-05-29T00:29:08;101676.41;;;17.89;70.75
77240;BME280;66258;53.170;-2.240;2023-05-29T00:31:35;101674.44;;;18.06;70.55
77240;BME280;66258;53.170;-2.240;2023-05-29T00:34:01;101676.16;;;17.76;71.40
77240;BME280;66258;53.170;-2.240;2023-05-29T00:36:28;101679.94;;;17.75;71.78
77240;BME280;66258;53.170;-2.240;2023-05-29T00:38:55;101678.84;;;17.53;73.90
77240;BME280;66258;53.170;-2.240;2023-05-29T00:41:21;101679.00;;;17.51;74.53
77240;BME280;66258;53.170;-2.240;2023-05-29T00:43:50;101675.47;;;17.82;73.70
77240;BME280;66258;53.170;-2.240;2023-05-29T00:46:17;101683.78;;;17.66;74.83
77240;BME280;66258;53.170;-2.240;2023-05-29T00:48:43;101675.94;;;17.85;73.50
77240;BME280;66258;53.170;-2.240;2023-05-29T00:51:11;101675.94;;;17.85;73.45
77240;BME280;66258;53.170;-2.240;2023-05-29T00:53:39;101673.28;;;17.69;74.24
77240;BME280;66258;53.170;-2.240;2023-05-29T00:56:07;101679.75;;;17.45;75.80
77240;BME280;66258;53.170;-2.240;2023-05-29T00:58:34;101671.16;;;17.48;76.45
77240;BME280;66258;53.170;-2.240;2023-05-29T01:01:02;101673.53;;;17.51;76.64
77240;BME280;66258;53.170;-2.240;2023-05-29T01:03:30;101680.88;;;17.59;76.39
77240;BME280;66258;53.170;-2.240;2023-05-29T01:05:57;101672.69;;;17.51;76.40
77240;BME280;66258;53.170;-2.240;2023-05-29T01:08:24;101672.84;;;17.49;76.80
77240;BME280;66258;53.170;-2.240;2023-05-29T01:10:54;101679.19;;;17.50;76.80
77240;BME280;66258;53.170;-2.240;2023-05-29T01:13:27;101678.66;;;17.55;76.45
77240;BME280;66258;53.170;-2.240;2023-05-29T01:16:01;101680.00;;;17.59;76.07
77240;BME280;66258;53.170;-2.240;2023-05-29T01:18:39;101690.78;;;17.60;75.71
77240;BME280;66258;53.170;-2.240;2023-05-29T01:21:13;101687.06;;;17.53;75.81
77240;BME280;66258;53.170;-2.240;2023-05-29T01:23:52;101682.53;;;17.37;77.03
77240;BME280;66258;53.170;-2.240;2023-05-29T01:26:51;101687.84;;;17.31;77.71
77240;BME280;66258;53.170;-2.240;2023-05-29T01:29:24;101676.78;;;17.24;78.45
77240;BME280;66258;53.170;-2.240;2023-05-29T01:31:52;101689.44;;;17.17;79.10
77240;BME280;66258;53.170;-2.240;2023-05-29T01:34:20;101686.19;;;17.13;79.79
77240;BME280;66258;53.170;-2.240;2023-05-29T01:36:46;101681.59;;;17.14;80.19
77240;BME280;66258;53.170;-2.240;2023-05-29T01:39:13;101695.78;;;17.09;80.29
77240;BME280;66258;53.170;-2.240;2023-05-29T01:41:43;101693.38;;;17.14;80.97
77240;BME280;66258;53.170;-2.240;2023-05-29T01:44:12;101690.56;;;17.31;80.15
77240;BME280;66258;53.170;-2.240;2023-05-29T01:46:40;101695.25;;;17.22;79.64
77240;BME280;66258;53.170;-2.240;2023-05-29T01:49:08;101690.94;;;17.28;79.22
77240;BME280;66258;53.170;-2.240;2023-05-29T01:51:35;101693.38;;;17.14;80.32
77240;BME280;66258;53.170;-2.240;2023-05-29T01:54:03;101698.03;;;17.06;80.93
77240;BME280;66258;53.170;-2.240;2023-05-29T01:56:31;101703.38;;;16.91;82.09
77240;BME280;66258;53.170;-2.240;2023-05-29T01:59:01;101697.72;;;16.93;82.37
77240;BME280;66258;53.170;-2.240;2023-05-29T02:01:29;101694.34;;;16.74;83.65
77240;BME280;66258;53.170;-2.240;2023-05-29T02:03:56;101698.78;;;16.75;84.19
77240;BME280;66258;53.170;-2.240;2023-05-29T02:06:22;101698.41;;;16.95;83.26
77240;BME280;66258;53.170;-2.240;2023-05-29T02:08:49;101700.13;;;16.96;83.30
77240;BME280;66258;53.170;-2.240;2023-05-29T02:11:16;101693.81;;;16.87;83.83
77240;BME280;66258;53.170;-2.240;2023-05-29T02:13:43;101691.03;;;17.03;83.49
77240;BME280;66258;53.170;-2.240;2023-05-29T02:16:11;101694.41;;;17.13;82.51
77240;BME280;66258;53.170;-2.240;2023-05-29T02:18:37;101702.97;;;17.10;82.80
77240;BME280;66258;53.170;-2.240;2023-05-29T02:21:04;101698.69;;;17.08;83.05
77240;BME280;66258;53.170;-2.240;2023-05-29T02:23:31;101694.31;;;16.99;83.18
77240;BME280;66258;53.170;-2.240;2023-05-29T02:25:57;101695.22;;;16.67;85.40
77240;BME280;66258;53.170;-2.240;2023-05-29T02:28:24;101693.50;;;16.82;85.39
77240;BME280;66258;53.170;-2.240;2023-05-29T02:30:51;101693.97;;;16.86;84.77
77240;BME280;66258;53.170;-2.240;2023-05-29T02:33:19;101700.16;;;16.71;85.31
77240;BME280;66258;53.170;-2.240;2023-05-29T02:35:46;101695.88;;;16.69;86.18
77240;BME280;66258;53.170;-2.240;2023-05-29T02:38:13;101696.59;;;16.38;87.81
77240;BME280;66258;53.170;-2.240;2023-05-29T02:40:40;101695.38;;;16.33;88.89
77240;BME280;66258;53.170;-2.240;2023-05-29T02:43:08;101697.25;;;16.24;89.97
77240;BME280;66258;53.170;-2.240;2023-05-29T02:45:35;101699.31;;;16.30;89.91
77240;BME280;66258;53.170;-2.240;2023-05-29T02:48:02;101693.84;;;16.30;90.50
77240;BME280;66258;53.170;-2.240;2023-05-29T02:50:30;101686.84;;;16.36;90.70
77240;BME280;66258;53.170;-2.240;2023-05-29T02:52:57;101686.69;;;16.37;90.33
77240;BME280;66258;53.170;-2.240;2023-05-29T02:55:24;101698.78;;;16.43;89.90
77240;BME280;66258;53.170;-2.240;2023-05-29T02:57:50;101700.88;;;16.41;89.94
77240;BME280;66258;53.170;-2.240;2023-05-29T03:00:17;101699.63;;;16.43;89.55
77240;BME280;66258;53.170;-2.240;2023-05-29T03:02:44;101700.34;;;16.37;89.34
77240;BME280;66258;53.170;-2.240;2023-05-29T03:05:11;101711.94;;;16.31;88.55
77240;BME280;66258;53.170;-2.240;2023-05-29T03:07:39;101705.63;;;16.14;88.83
77240;BME280;66258;53.170;-2.240;2023-05-29T03:10:06;101701.84;;;16.07;89.18
77240;BME280;66258;53.170;-2.240;2023-05-29T03:12:33;101701.34;;;16.04;89.46
77240;BME280;66258;53.170;-2.240;2023-05-29T03:15:00;101709.38;;;16.13;89.62
77240;BME280;66258;53.170;-2.240;2023-05-29T03:17:27;101713.84;;;16.31;88.37
77240;BME280;66258;53.170;-2.240;2023-05-29T03:19:53;101709.38;;;16.22;87.98
77240;BME280;66258;53.170;-2.240;2023-05-29T03:22:20;101714.16;;;16.11;88.94
77240;BME280;66258;53.170;-2.240;2023-05-29T03:24:48;101718.09;;;16.17;88.60
77240;BME280;66258;53.170;-2.240;2023-05-29T03:27:15;101716.91;;;16.11;88.31
77240;BME280;66258;53.170;-2.240;2023-05-29T03:29:43;101715.16;;;15.94;88.93
77240;BME280;66258;53.170;-2.240;2023-05-29T03:32:10;101715.00;;;16.12;89.21
77240;BME280;66258;53.170;-2.240;2023-05-29T03:34:36;101708.38;;;16.14;89.31
77240;BME280;66258;53.170;-2.240;2023-05-29T03:37:03;101706.09;;;15.77;90.34
77240;BME280;66258;53.170;-2.240;2023-05-29T03:39:30;101705.44;;;16.08;89.77
77240;BME280;66258;53.170;-2.240;2023-05-29T03:41:59;101710.22;;;15.98;89.99
77240;BME280;66258;53.170;-2.240;2023-05-29T03:44:25;101704.72;;;15.81;90.42
77240;BME280;66258;53.170;-2.240;2023-05-29T03:46:52;101704.34;;;15.68;91.04
77240;BME280;66258;53.170;-2.240;2023-05-29T03:49:19;101703.28;;;15.61;92.11
77240;BME280;66258;53.170;-2.240;2023-05-29T03:51:45;101700.44;;;15.71;92.19
77240;BME280;66258;53.170;-2.240;2023-05-29T03:54:12;101707.41;;;15.57;93.38
77240;BME280;66258;53.170;-2.240;2023-05-29T03:56:39;101713.22;;;15.70;92.34
77240;BME280;66258;53.170;-2.240;2023-05-29T03:59:07;101711.38;;;15.87;91.46
77240;BME280;66258;53.170;-2.240;2023-05-29T04:01:34;101713.09;;;15.88;90.52
77240;BME280;66258;53.170;-2.240;2023-05-29T04:04:00;101714.28;;;15.86;90.54
77240;BME280;66258;53.170;-2.240;2023-05-29T04:06:27;101712.47;;;15.52;91.53
77240;BME280;66258;53.170;-2.240;2023-05-29T04:08:54;101707.44;;;15.31;93.29
77240;BME280;66258;53.170;-2.240;2023-05-29T04:11:21;101714.06;;;15.29;94.57
77240;BME280;66258;53.170;-2.240;2023-05-29T04:13:48;101713.03;;;15.64;93.81
77240;BME280;66258;53.170;-2.240;2023-05-29T04:16:16;101715.09;;;15.28;95.00
77240;BME280;66258;53.170;-2.240;2023-05-29T04:18:43;101716.97;;;15.27;95.73
77240;BME280;66258;53.170;-2.240;2023-05-29T04:21:10;101721.94;;;15.40;96.12
77240;BME280;66258;53.170;-2.240;2023-05-29T04:23:37;101713.75;;;15.40;95.01
77240;BME280;66258;53.170;-2.240;2023-05-29T04:26:04;101719.38;;;15.38;94.99
77240;BME280;66258;53.170;-2.240;2023-05-29T04:28:31;101719.91;;;15.34;95.40
77240;BME280;66258;53.170;-2.240;2023-05-29T04:30:57;101723.31;;;15.36;95.80
77240;BME280;66258;53.170;-2.240;2023-05-29T04:33:25;101723.31;;;15.36;95.92
77240;BME280;66258;53.170;-2.240;2023-05-29T04:35:52;101729.97;;;15.33;96.68
77240;BME280;66258;53.170;-2.240;2023-05-29T04:38:19;101722.81;;;15.40;96.70
77240;BME280;66258;53.170;-2.240;2023-05-29T04:40:46;101727.06;;;15.35;96.77
77240;BME280;66258;53.170;-2.240;2023-05-29T04:43:13;101721.28;;;15.38;97.18
77240;BME280;66258;53.170;-2.240;2023-05-29T04:45:39;101731.72;;;15.51;98.02
77240;BME280;66258;53.170;-2.240;2023-05-29T04:48:06;101732.34;;;15.70;98.38
77240;BME280;66258;53.170;-2.240;2023-05-29T04:50:34;101730.31;;;15.72;97.96
77240;BME280;66258;53.170;-2.240;2023-05-29T04:53:01;101738.91;;;15.94;97.29
77240;BME280;66258;53.170;-2.240;2023-05-29T04:55:27;101738.19;;;15.92;96.79
77240;BME280;66258;53.170;-2.240;2023-05-29T04:57:54;101745.38;;;15.93;96.58
77240;BME280;66258;53.170;-2.240;2023-05-29T05:00:21;101746.75;;;15.97;96.56
77240;BME280;66258;53.170;-2.240;2023-05-29T05:02:49;101736.00;;;16.03;96.47
77240;BME280;66258;53.170;-2.240;2023-05-29T05:05:16;101746.25;;;16.09;97.47
77240;BME280;66258;53.170;-2.240;2023-05-29T05:07:44;101735.19;;;16.35;97.28
77240;BME280;66258;53.170;-2.240;2023-05-29T05:10:11;101742.88;;;16.64;96.84
77240;BME280;66258;53.170;-2.240;2023-05-29T05:12:38;101740.13;;;16.89;96.15
77240;BME280;66258;53.170;-2.240;2023-05-29T05:15:06;101738.34;;;17.20;94.45
77240;BME280;66258;53.170;-2.240;2023-05-29T05:17:33;101746.69;;;17.35;95.12
77240;BME280;66258;53.170;-2.240;2023-05-29T05:19:59;101757.50;;;17.75;93.12
77240;BME280;66258;53.170;-2.240;2023-05-29T05:22:26;101756.59;;;17.83;92.16
77240;BME280;66258;53.170;-2.240;2023-05-29T05:24:54;101762.03;;;17.91;91.24
77240;BME280;66258;53.170;-2.240;2023-05-29T05:27:21;101759.59;;;17.57;92.25
77240;BME280;66258;53.170;-2.240;2023-05-29T05:29:48;101765.22;;;17.64;92.52
77240;BME280;66258;53.170;-2.240;2023-05-29T05:32:15;101762.47;;;17.72;91.63
77240;BME280;66258;53.170;-2.240;2023-05-29T05:34:42;101763.91;;;17.91;91.07
77240;BME280;66258;53.170;-2.240;2023-05-29T05:37:09;101771.06;;;18.00;89.45
77240;BME280;66258;53.170;-2.240;2023-05-29T05:39:35;101772.13;;;17.91;89.47
77240;BME280;66258;53.170;-2.240;2023-05-29T05:42:04;101773.19;;;18.12;89.68
77240;BME280;66258;53.170;-2.240;2023-05-29T05:44:31;101770.84;;;18.32;88.71
77240;BME280;66258;53.170;-2.240;2023-05-29T05:46:58;101780.28;;;18.52;87.59
77240;BME280;66258;53.170;-2.240;2023-05-29T05:49:25;101786.56;;;18.84;86.25
77240;BME280;66258;53.170;-2.240;2023-05-29T05:51:52;101778.06;;;18.94;85.33
77240;BME280;66258;53.170;-2.240;2023-05-29T05:54:18;101793.91;;;19.06;85.36
77240;BME280;66258;53.170;-2.240;2023-05-29T05:56:45;101788.34;;;19.44;84.97
77240;BME280;66258;53.170;-2.240;2023-05-29T05:59:13;101785.72;;;19.65;83.18
77240;BME280;66258;53.170;-2.240;2023-05-29T06:01:40;101790.38;;;20.01;82.47
77240;BME280;66258;53.170;-2.240;2023-05-29T06:04:07;101794.56;;;20.33;79.56
77240;BME280;66258;53.170;-2.240;2023-05-29T06:06:34;101789.41;;;20.87;77.37
77240;BME280;66258;53.170;-2.240;2023-05-29T06:09:01;101786.13;;;21.26;75.56
77240;BME280;66258;53.170;-2.240;2023-05-29T06:11:28;101793.50;;;21.53;71.77
77240;BME280;66258;53.170;-2.240;2023-05-29T06:13:54;101796.47;;;21.93;69.55
77240;BME280;66258;53.170;-2.240;2023-05-29T06:16:23;101802.72;;;22.15;66.41
77240;BME280;66258;53.170;-2.240;2023-05-29T06:18:50;101806.63;;;22.53;63.77
77240;BME280;66258;53.170;-2.240;2023-05-29T06:21:16;101807.97;;;22.77;61.75
77240;BME280;66258;53.170;-2.240;2023-05-29T06:23:43;101812.25;;;23.00;58.67
77240;BME280;66258;53.170;-2.240;2023-05-29T06:26:10;101816.50;;;23.02;56.02
77240;BME280;66258;53.170;-2.240;2023-05-29T06:28:36;101813.28;;;22.99;56.49
77240;BME280;66258;53.170;-2.240;2023-05-29T06:31:03;101827.09;;;23.18;55.53
77240;BME280;66258;53.170;-2.240;2023-05-29T06:33:31;101818.41;;;23.02;55.24
77240;BME280;66258;53.170;-2.240;2023-05-29T06:35:58;101817.09;;;23.11;57.38
77240;BME280;66258;53.170;-2.240;2023-05-29T06:38:28;101819.00;;;23.37;54.44
77240;BME280;66258;53.170;-2.240;2023-05-29T06:40:55;101819.03;;;23.23;52.56
77240;BME280;66258;53.170;-2.240;2023-05-29T06:43:22;101824.97;;;22.94;52.22
77240;BME280;66258;53.170;-2.240;2023-05-29T06:45:49;101820.53;;;22.80;52.44
77240;BME280;66258;53.170;-2.240;2023-05-29T06:48:16;101825.78;;;22.61;51.69
77240;BME280;66258;53.170;-2.240;2023-05-29T06:50:44;101829.25;;;23.03;52.01
77240;BME280;66258;53.170;-2.240;2023-05-29T06:53:11;101829.66;;;23.13;50.94
77240;BME280;66258;53.170;-2.240;2023-05-29T06:55:38;101838.38;;;23.23;51.76
77240;BME280;66258;53.170;-2.240;2023-05-29T06:58:04;101831.31;;;23.54;51.06
77240;BME280;66258;53.170;-2.240;2023-05-29T07:00:31;101838.50;;;23.75;50.08
77240;BME280;66258;53.170;-2.240;2023-05-29T07:02:58;101836.25;;;23.25;49.61
77240;BME280;66258;53.170;-2.240;2023-05-29T07:05:26;101840.47;;;22.88;49.42
77240;BME280;66258;53.170;-2.240;2023-05-29T07:07:54;101834.97;;;23.02;49.64
77240;BME280;66258;53.170;-2.240;2023-05-29T07:10:21;101835.94;;;22.68;49.62
77240;BME280;66258;53.170;-2.240;2023-05-29T07:12:48;101835.94;;;22.68;48.82
77240;BME280;66258;53.170;-2.240;2023-05-29T07:15:14;101836.41;;;22.65;48.52
77240;BME280;66258;53.170;-2.240;2023-05-29T07:17:41;101840.16;;;22.50;46.50
77240;BME280;66258;53.170;-2.240;2023-05-29T07:20:08;101843.84;;;22.10;46.05
77240;BME280;66258;53.170;-2.240;2023-05-29T07:22:35;101834.16;;;22.20;45.98
77240;BME280;66258;53.170;-2.240;2023-05-29T07:25:04;101825.22;;;22.18;47.57
77240;BME280;66258;53.170;-2.240;2023-05-29T07:27:31;101820.31;;;21.73;46.65
77240;BME280;66258;53.170;-2.240;2023-05-29T07:29:57;101827.44;;;21.54;48.23
77240;BME280;66258;53.170;-2.240;2023-05-29T07:32:24;101821.47;;;21.91;48.99
77240;BME280;66258;53.170;-2.240;2023-05-29T07:34:51;101820.19;;;21.87;48.32
77240;BME280;66258;53.170;-2.240;2023-05-29T07:37:18;101814.66;;;21.87;49.20
77240;BME280;66258;53.170;-2.240;2023-05-29T07:39:44;101826.81;;;22.54;48.05
77240;BME280;66258;53.170;-2.240;2023-05-29T07:42:12;101821.94;;;22.56;46.21
77240;BME280;66258;53.170;-2.240;2023-05-29T07:44:39;101821.69;;;22.38;45.47
77240;BME280;66258;53.170;-2.240;2023-05-29T07:47:06;101833.94;;;22.28;46.00
77240;BME280;66258;53.170;-2.240;2023-05-29T07:49:32;101825.88;;;22.20;46.00
77240;BME280;66258;53.170;-2.240;2023-05-29T07:51:59;101823.94;;;22.14;45.47
77240;BME280;66258;53.170;-2.240;2023-05-29T07:54:26;101826.72;;;22.27;45.45
77240;BME280;66258;53.170;-2.240;2023-05-29T07:56:53;101828.00;;;22.25;44.97
77240;BME280;66258;53.170;-2.240;2023-05-29T07:59:21;101834.00;;;22.48;46.06
77240;BME280;66258;53.170;-2.240;2023-05-29T08:01:48;101833.47;;;23.19;45.40
77240;BME280;66258;53.170;-2.240;2023-05-29T08:04:14;101832.19;;;23.08;42.43
77240;BME280;66258;53.170;-2.240;2023-05-29T08:06:41;101841.03;;;22.44;43.70
77240;BME280;66258;53.170;-2.240;2023-05-29T08:09:08;101839.97;;;22.52;43.25
77240;BME280;66258;53.170;-2.240;2023-05-29T08:11:35;101841.13;;;23.04;43.91
77240;BME280;66258;53.170;-2.240;2023-05-29T08:14:02;101858.41;;;24.03;42.91
77240;BME280;66258;53.170;-2.240;2023-05-29T08:16:30;101847.00;;;23.86;40.01
77240;BME280;66258;53.170;-2.240;2023-05-29T08:18:57;101851.53;;;23.02;41.19
77240;BME280;66258;53.170;-2.240;2023-05-29T08:21:24;101847.06;;;23.20;41.05
77240;BME280;66258;53.170;-2.240;2023-05-29T08:23:51;101855.66;;;23.96;41.62
77240;BME280;66258;53.170;-2.240;2023-05-29T08:26:17;101859.19;;;24.17;39.78
77240;BME280;66258;53.170;-2.240;2023-05-29T08:28:44;101850.91;;;24.93;39.10
77240;BME280;66258;53.170;-2.240;2023-05-29T08:31:11;101863.84;;;25.06;37.85
77240;BME280;66258;53.170;-2.240;2023-05-29T08:33:40;101853.13;;;24.78;38.98
77240;BME280;66258;53.170;-2.240;2023-05-29T08:36:07;101850.88;;;24.23;39.56
77240;BME280;66258;53.170;-2.240;2023-05-29T08:38:34;101851.09;;;24.66;40.50
77240;BME280;66258;53.170;-2.240;2023-05-29T08:41:02;101861.13;;;24.61;39.72
77240;BME280;66258;53.170;-2.240;2023-05-29T08:43:30;101864.31;;;24.96;40.15
77240;BME280;66258;53.170;-2.240;2023-05-29T08:46:00;101856.16;;;25.08;37.72
77240;BME280;66258;53.170;-2.240;2023-05-29T08:48:28;101861.66;;;25.14;37.46
77240;BME280;66258;53.170;-2.240;2023-05-29T08:50:58;101868.19;;;24.57;38.68
77240;BME280;66258;53.170;-2.240;2023-05-29T08:53:25;101859.56;;;24.33;38.35
77240;BME280;66258;53.170;-2.240;2023-05-29T08:55:52;101858.72;;;24.33;39.90
77240;BME280;66258;53.170;-2.240;2023-05-29T08:58:20;101851.84;;;23.91;38.48
77240;BME280;66258;53.170;-2.240;2023-05-29T09:00:47;101852.44;;;24.06;39.09
77240;BME280;66258;53.170;-2.240;2023-05-29T09:03:14;101853.38;;;24.45;41.31
77240;BME280;66258;53.170;-2.240;2023-05-29T09:05:42;101854.41;;;24.82;38.36
77240;BME280;66258;53.170;-2.240;2023-05-29T09:08:10;101856.59;;;24.35;39.09
77240;BME280;66258;53.170;-2.240;2023-05-29T09:10:38;101851.63;;;23.92;40.13
77240;BME280;66258;53.170;-2.240;2023-05-29T09:13:05;101842.75;;;23.84;40.85
77240;BME280;66258;53.170;-2.240;2023-05-29T09:15:32;101837.22;;;23.71;41.04
77240;BME280;66258;53.170;-2.240;2023-05-29T09:17:59;101853.38;;;24.45;41.27
77240;BME280;66258;53.170;-2.240;2023-05-29T09:20:27;101853.88;;;24.66;38.08
77240;BME280;66258;53.170;-2.240;2023-05-29T09:22:55;101847.66;;;25.03;39.14
77240;BME280;66258;53.170;-2.240;2023-05-29T09:25:24;101849.25;;;24.85;38.63
77240;BME280;66258;53.170;-2.240;2023-05-29T09:27:53;101848.06;;;24.37;38.61
77240;BME280;66258;53.170;-2.240;2023-05-29T09:30:36;101846.00;;;24.25;39.01
77240;BME280;66258;53.170;-2.240;2023-05-29T09:33:03;101844.50;;;24.23;39.08
77240;BME280;66258;53.170;-2.240;2023-05-29T09:35:36;101848.91;;;24.37;39.32
77240;BME280;66258;53.170;-2.240;2023-05-29T09:38:03;101851.53;;;24.95;40.05
77240;BME280;66258;53.170;-2.240;2023-05-29T09:40:32;101850.88;;;25.24;38.32
77240;BME280;66258;53.170;-2.240;2023-05-29T09:43:03;101841.84;;;25.36;37.40
77240;BME280;66258;53.170;-2.240;2023-05-29T09:45:30;101849.13;;;25.30;38.11
77240;BME280;66258;53.170;-2.240;2023-05-29T09:47:59;101852.59;;;25.25;37.96
77240;BME280;66258;53.170;-2.240;2023-05-29T09:50:26;101847.66;;;25.03;38.21
77240;BME280;66258;53.170;-2.240;2023-05-29T09:52:53;101842.50;;;24.43;38.81
77240;BME280;66258;53.170;-2.240;2023-05-29T09:55:22;101846.31;;;23.91;39.39
77240;BME280;66258;53.170;-2.240;2023-05-29T09:57:53;101842.47;;;24.05;40.85
77240;BME280;66258;53.170;-2.240;2023-05-29T10:00:20;101829.41;;;24.19;41.33
77240;BME280;66258;53.170;-2.240;2023-05-29T10:02:47;101826.56;;;24.39;39.38
77240;BME280;66258;53.170;-2.240;2023-05-29T10:05:15;101827.03;;;24.22;38.47
77240;BME280;66258;53.170;-2.240;2023-05-29T10:07:43;101822.81;;;24.20;39.16
77240;BME280;66258;53.170;-2.240;2023-05-29T10:10:12;101819.19;;;24.13;39.02
77240;BME280;66258;53.170;-2.240;2023-05-29T10:12:44;101818.53;;;24.30;40.17
77240;BME280;66258;53.170;-2.240;2023-05-29T10:15:14;101816.66;;;24.56;38.70
77240;BME280;66258;53.170;-2.240;2023-05-29T10:17:47;101819.69;;;24.79;39.23
77240;BME280;66258;53.170;-2.240;2023-05-29T10:20:17;101813.75;;;24.76;40.17
77240;BME280;66258;53.170;-2.240;2023-05-29T10:22:47;101824.94;;;24.62;39.54
77240;BME280;66258;53.170;-2.240;2023-05-29T10:25:17;101821.22;;;24.44;39.98
77240;BME280;66258;53.170;-2.240;2023-05-29T10:27:44;101818.09;;;24.65;38.97
77240;BME280;66258;53.170;-2.240;2023-05-29T10:30:20;101823.38;;;25.48;39.72
77240;BME280;66258;53.170;-2.240;2023-05-29T10:33:08;101831.66;;;26.09;37.75
77240;BME280;66258;53.170;-2.240;2023-05-29T10:35:41;101834.34;;;26.34;37.91
77240;BME280;66258;53.170;-2.240;2023-05-29T10:38:12;101822.38;;;26.33;36.12
77240;BME280;66258;53.170;-2.240;2023-05-29T10:40:39;101828.22;;;25.95;35.44
77240;BME280;66258;53.170;-2.240;2023-05-29T10:43:06;101830.13;;;25.95;35.63
77240;BME280;66258;53.170;-2.240;2023-05-29T10:45:50;101827.72;;;25.98;35.43
77240;BME280;66258;53.170;-2.240;2023-05-29T10:48:36;101829.28;;;25.94;36.02
77240;BME280;66258;53.170;-2.240;2023-05-29T10:51:05;101818.16;;;26.31;37.55
77240;BME280;66258;53.170;-2.240;2023-05-29T10:53:32;101823.47;;;26.32;35.92
77240;BME280;66258;53.170;-2.240;2023-05-29T10:56:00;101823.13;;;26.41;36.15
77240;BME280;66258;53.170;-2.240;2023-05-29T10:58:27;101820.84;;;26.79;36.15
77240;BME280;66258;53.170;-2.240;2023-05-29T11:00:55;101817.19;;;26.67;36.67
77240;BME280;66258;53.170;-2.240;2023-05-29T11:03:23;101821.75;;;27.03;36.00
77240;BME280;66258;53.170;-2.240;2023-05-29T11:05:57;101813.06;;;26.99;34.60
77240;BME280;66258;53.170;-2.240;2023-05-29T11:08:29;101813.38;;;26.91;35.17
77240;BME280;66258;53.170;-2.240;2023-05-29T11:10:59;101812.31;;;27.04;35.36
77240;BME280;66258;53.170;-2.240;2023-05-29T11:13:27;101811.63;;;27.20;36.25
77240;BME280;66258;53.170;-2.240;2023-05-29T11:16:12;101808.59;;;27.10;35.70
77240;BME280;66258;53.170;-2.240;2023-05-29T11:18:40;101805.56;;;27.23;35.18
77240;BME280;66258;53.170;-2.240;2023-05-29T11:21:21;101809.09;;;27.30;34.43
77240;BME280;66258;53.170;-2.240;2023-05-29T11:23:51;101804.00;;;27.51;33.75
77240;BME280;66258;53.170;-2.240;2023-05-29T11:26:18;101804.97;;;27.80;33.95
77240;BME280;66258;53.170;-2.240;2023-05-29T11:28:46;101807.00;;;27.84;34.48
77240;BME280;66258;53.170;-2.240;2023-05-29T11:31:15;101804.78;;;27.98;34.16
77240;BME280;66258;53.170;-2.240;2023-05-29T11:33:48;101797.06;;;27.88;33.83
77240;BME280;66258;53.170;-2.240;2023-05-29T11:36:16;101797.13;;;27.18;34.65
77240;BME280;66258;53.170;-2.240;2023-05-29T11:38:43;101800.72;;;27.54;34.57
77240;BME280;66258;53.170;-2.240;2023-05-29T11:41:10;101802.06;;;27.75;34.56
77240;BME280;66258;53.170;-2.240;2023-05-29T11:43:37;101803.94;;;27.86;35.40
77240;BME280;66258;53.170;-2.240;2023-05-29T11:46:16;101809.56;;;27.39;34.04
77240;BME280;66258;53.170;-2.240;2023-05-29T11:48:45;101802.56;;;27.36;34.21
77240;BME280;66258;53.170;-2.240;2023-05-29T11:51:12;101799.75;;;27.48;35.05
77240;BME280;66258;53.170;-2.240;2023-05-29T11:53:40;101800.38;;;27.50;33.65
77240;BME280;66258;53.170;-2.240;2023-05-29T11:56:07;101813.53;;;27.55;33.51
77240;BME280;66258;53.170;-2.240;2023-05-29T11:58:34;101808.34;;;27.47;33.91
77240;BME280;66258;53.170;-2.240;2023-05-29T12:01:01;101818.97;;;27.50;33.75
77240;BME280;66258;53.170;-2.240;2023-05-29T12:03:29;101801.94;;;27.81;33.38
77240;BME280;66258;53.170;-2.240;2023-05-29T12:05:56;101806.28;;;27.77;33.07
77240;BME280;66258;53.170;-2.240;2023-05-29T12:08:24;101794.09;;;27.43;33.31
77240;BME280;66258;53.170;-2.240;2023-05-29T12:10:52;101797.59;;;27.38;34.77
77240;BME280;66258;53.170;-2.240;2023-05-29T12:13:19;101784.31;;;27.29;33.79
77240;BME280;66258;53.170;-2.240;2023-05-29T12:15:48;101795.06;;;27.37;33.06
77240;BME280;66258;53.170;-2.240;2023-05-29T12:18:16;101787.44;;;27.32;33.66
77240;BME280;66258;53.170;-2.240;2023-05-29T12:20:44;101776.31;;;27.56;32.92
77240;BME280;66258;53.170;-2.240;2023-05-29T12:23:11;101778.59;;;27.70;32.39
77240;BME280;66258;53.170;-2.240;2023-05-29T12:25:38;101783.78;;;27.67;33.01
77240;BME280;66258;53.170;-2.240;2023-05-29T12:28:04;101783.31;;;27.70;32.26
77240;BME280;66258;53.170;-2.240;2023-05-29T12:30:37;101792.22;;;27.95;32.59
77240;BME280;66258;53.170;-2.240;2023-05-29T12:33:04;101789.75;;;27.59;31.70
77240;BME280;66258;53.170;-2.240;2023-05-29T12:35:31;101778.09;;;27.74;32.06
77240;BME280;66258;53.170;-2.240;2023-05-29T12:38:00;101778.97;;;27.51;32.13
77240;BME280;66258;53.170;-2.240;2023-05-29T12:40:28;101778.88;;;26.99;33.16
77240;BME280;66258;53.170;-2.240;2023-05-29T12:42:56;101780.19;;;26.96;32.70
77240;BME280;66258;53.170;-2.240;2023-05-29T12:45:25;101777.50;;;26.90;33.18